createdAt,value
2018-10-12T00:00:50.854Z,15.60
2018-10-12T00:03:18.475Z,15.60
2018-10-12T00:05:46.013Z,15.60
2018-10-12T00:08:13.617Z,15.50
2018-10-12T00:10:41.161Z,15.40
2018-10-12T00:13:08.720Z,15.30
2018-10-12T00:15:36.281Z,15.20
2018-10-12T00:18:03.881Z,15.20
2018-10-12T00:20:31.471Z,15.10
2018-10-12T00:22:59.012Z,15.10
2018-10-12T00:25:26.588Z,15.00
2018-10-12T00:27:54.148Z,14.90
2018-10-12T00:30:21.823Z,14.80
2018-10-12T00:32:49.359Z,14.70
2018-10-12T00:35:16.907Z,14.70
2018-10-12T00:37:44.493Z,14.60
2018-10-12T00:40:12.069Z,14.50
2018-10-12T00:42:39.670Z,14.50
2018-10-12T00:45:07.311Z,14.50
2018-10-12T00:47:34.896Z,14.40
2018-10-12T00:50:02.496Z,14.40
2018-10-12T00:52:30.061Z,14.30
2018-10-12T00:54:57.822Z,14.30
2018-10-12T00:57:25.409Z,14.30
2018-10-12T00:59:52.995Z,14.20
2018-10-12T01:02:22.595Z,14.20
2018-10-12T01:04:50.160Z,14.10
2018-10-12T01:07:17.731Z,14.10
2018-10-12T01:09:45.897Z,14.00
2018-10-12T01:12:26.759Z,14.00
2018-10-12T01:14:54.341Z,13.90
2018-10-12T01:17:21.907Z,13.90
2018-10-12T01:19:50.192Z,13.80
2018-10-12T01:22:17.889Z,13.70
2018-10-12T01:24:45.497Z,13.70
2018-10-12T01:27:13.058Z,13.60
2018-10-12T01:29:40.677Z,13.60
2018-10-12T01:32:09.874Z,13.50
2018-10-12T01:34:37.456Z,13.50
2018-10-12T01:37:05.014Z,13.50
2018-10-12T01:39:32.575Z,13.40
2018-10-12T01:42:00.157Z,13.40
2018-10-12T01:44:28.041Z,13.30
2018-10-12T01:46:56.566Z,13.30
2018-10-12T01:49:24.135Z,13.30
2018-10-12T01:51:51.720Z,13.20
2018-10-12T01:54:19.288Z,13.20
2018-10-12T01:56:46.927Z,13.20
2018-10-12T01:59:14.525Z,13.10
2018-10-12T02:01:42.085Z,13.10
2018-10-12T02:04:09.661Z,13.10
2018-10-12T02:06:37.340Z,13.00
2018-10-12T02:09:05.894Z,13.00
2018-10-12T02:11:33.491Z,12.90
2018-10-12T02:14:01.018Z,12.90
2018-10-12T02:16:28.581Z,12.90
2018-10-12T02:18:56.137Z,12.90
2018-10-12T02:21:23.689Z,12.80
2018-10-12T02:23:51.376Z,12.80
2018-10-12T02:26:19.016Z,12.80
2018-10-12T02:28:46.591Z,12.80
2018-10-12T02:31:14.133Z,12.80
2018-10-12T02:33:41.699Z,12.80
2018-10-12T02:36:09.248Z,12.80
2018-10-12T02:38:36.813Z,12.80
2018-10-12T02:41:04.393Z,12.70
2018-10-12T02:43:31.953Z,12.70
2018-10-12T02:45:59.527Z,12.70
2018-10-12T02:48:27.060Z,12.70
2018-10-12T02:50:54.612Z,12.70
2018-10-12T02:53:22.187Z,12.70
2018-10-12T02:55:49.764Z,12.70
2018-10-12T02:58:17.344Z,12.70
2018-10-12T03:00:44.961Z,12.80
2018-10-12T03:03:13.931Z,12.80
2018-10-12T03:05:41.796Z,12.80
2018-10-12T03:08:09.500Z,12.80
2018-10-12T03:10:37.060Z,12.80
2018-10-12T03:13:05.618Z,12.80
2018-10-12T03:15:33.915Z,12.80
2018-10-12T03:18:01.455Z,12.90
2018-10-12T03:20:29.671Z,12.90
2018-10-12T03:22:57.216Z,12.90
2018-10-12T03:25:24.840Z,12.90
2018-10-12T03:28:03.704Z,12.90
2018-10-12T03:30:31.453Z,12.90
2018-10-12T03:32:59.181Z,12.90
2018-10-12T03:35:26.904Z,12.90
2018-10-12T03:37:54.494Z,12.90
2018-10-12T03:40:22.102Z,12.90
2018-10-12T03:42:49.817Z,12.80
2018-10-12T03:45:17.414Z,12.80
2018-10-12T03:47:45.006Z,12.80
2018-10-12T03:50:12.600Z,12.70
2018-10-12T03:52:40.177Z,12.70
2018-10-12T03:55:07.792Z,12.70
2018-10-12T03:57:35.421Z,12.60
2018-10-12T04:00:03.535Z,12.60
2018-10-12T04:02:31.090Z,12.60
2018-10-12T04:04:58.731Z,12.50
2018-10-12T04:07:26.441Z,12.50
2018-10-12T04:09:53.961Z,12.40
2018-10-12T04:12:21.689Z,12.40
2018-10-12T04:14:49.249Z,12.40
2018-10-12T04:17:16.788Z,12.30
2018-10-12T04:19:44.441Z,12.30
2018-10-12T04:22:12.028Z,12.30
2018-10-12T04:24:39.611Z,12.20
2018-10-12T04:27:07.232Z,12.20
2018-10-12T04:29:35.721Z,12.20
2018-10-12T04:32:03.384Z,12.10
2018-10-12T04:34:31.066Z,12.10
2018-10-12T04:36:58.668Z,12.10
2018-10-12T04:39:43.885Z,12.10
2018-10-12T04:42:11.505Z,12.00
2018-10-12T04:44:39.178Z,12.00
2018-10-12T04:47:07.179Z,11.90
2018-10-12T04:49:35.225Z,11.90
2018-10-12T04:52:03.533Z,11.90
2018-10-12T04:54:31.119Z,11.80
2018-10-12T04:56:58.763Z,11.80
2018-10-12T04:59:26.455Z,11.80
2018-10-12T05:01:54.092Z,11.80
2018-10-12T05:04:21.829Z,11.70
2018-10-12T05:06:49.524Z,11.70
2018-10-12T05:09:17.146Z,11.70
2018-10-12T05:11:45.476Z,11.60
2018-10-12T05:14:13.076Z,11.60
2018-10-12T05:16:40.678Z,11.60
2018-10-12T05:19:08.912Z,11.60
2018-10-12T05:21:36.584Z,11.60
2018-10-12T05:24:04.328Z,11.60
2018-10-12T05:26:32.355Z,11.60
2018-10-12T05:28:59.992Z,11.60
2018-10-12T05:31:27.673Z,11.60
2018-10-12T05:33:56.513Z,11.60
2018-10-12T05:36:24.067Z,11.60
2018-10-12T05:38:52.516Z,11.60
2018-10-12T05:41:20.065Z,11.60
2018-10-12T05:43:47.645Z,11.60
2018-10-12T05:46:15.164Z,11.60
2018-10-12T05:48:54.194Z,11.60
2018-10-12T05:51:21.821Z,11.60
2018-10-12T05:53:50.456Z,11.60
2018-10-12T05:56:21.266Z,11.60
2018-10-12T05:58:49.121Z,11.70
2018-10-12T06:01:16.761Z,11.70
2018-10-12T06:03:44.323Z,11.80
2018-10-12T06:06:11.980Z,12.00
2018-10-12T06:08:39.553Z,12.10
2018-10-12T06:11:07.162Z,12.30
2018-10-12T06:13:34.715Z,12.40
2018-10-12T06:16:02.363Z,12.50
2018-10-12T06:18:29.922Z,12.60
2018-10-12T06:20:57.591Z,12.70
2018-10-12T06:23:25.169Z,12.70
2018-10-12T06:25:52.779Z,12.80
2018-10-12T06:28:20.424Z,12.90
2018-10-12T06:30:48.031Z,13.10
2018-10-12T06:33:15.654Z,13.30
2018-10-12T06:35:43.178Z,13.80
2018-10-12T06:38:10.811Z,15.20
2018-10-12T06:40:38.406Z,17.00
2018-10-12T06:43:06.015Z,18.80
2018-10-12T06:45:33.670Z,20.30
2018-10-12T06:48:01.275Z,21.40
2018-10-12T06:50:28.848Z,22.40
2018-10-12T06:52:56.457Z,23.60
2018-10-12T06:55:24.042Z,24.80
2018-10-12T06:57:51.588Z,26.10
2018-10-12T07:00:19.196Z,27.30
2018-10-12T07:02:46.771Z,28.30
2018-10-12T07:05:15.092Z,29.40
2018-10-12T07:07:43.157Z,30.50
2018-10-12T07:10:10.758Z,31.30
2018-10-12T07:12:38.303Z,32.20
2018-10-12T07:15:06.567Z,32.40
2018-10-12T07:17:34.154Z,32.60
2018-10-12T07:20:01.763Z,33.30
2018-10-12T07:22:30.191Z,33.90
2018-10-12T07:24:57.789Z,34.60
2018-10-12T07:27:25.333Z,35.00
2018-10-12T07:29:52.893Z,35.60
2018-10-12T07:32:20.495Z,36.20
2018-10-12T07:34:48.091Z,37.00
2018-10-12T07:37:15.710Z,37.70
2018-10-12T07:39:44.634Z,38.40
2018-10-12T07:42:12.277Z,39.00
2018-10-12T07:44:39.829Z,39.70
2018-10-12T07:47:07.370Z,40.40
2018-10-12T07:49:35.001Z,41.10
2018-10-12T07:52:02.638Z,41.70
2018-10-12T07:54:31.380Z,42.30
2018-10-12T07:57:05.023Z,42.80
2018-10-12T07:59:32.777Z,43.30
2018-10-12T08:02:01.169Z,43.90
2018-10-12T08:04:29.156Z,44.40
2018-10-12T08:06:57.455Z,44.80
2018-10-12T08:12:00.105Z,45.80
2018-10-12T08:14:27.696Z,46.30
2018-10-12T08:16:55.273Z,46.60
2018-10-12T08:19:23.478Z,46.80
2018-10-12T08:21:51.149Z,47.00
2018-10-12T08:24:18.929Z,47.20
2018-10-12T08:26:46.718Z,47.30
2018-10-12T08:29:14.440Z,47.50
2018-10-12T08:31:42.251Z,47.70
2018-10-12T08:34:10.155Z,48.00
2018-10-12T08:36:38.503Z,48.40
2018-10-12T08:39:08.588Z,48.80
2018-10-12T08:41:36.242Z,49.00
2018-10-12T08:44:04.222Z,49.00
2018-10-12T08:46:32.119Z,49.00
2018-10-12T08:48:59.782Z,49.30
2018-10-12T08:51:27.794Z,49.70
2018-10-12T08:53:59.788Z,50.20
2018-10-12T08:56:27.828Z,50.70
2018-10-12T08:58:55.356Z,51.10
2018-10-12T09:01:22.949Z,51.60
2018-10-12T09:03:50.524Z,52.10
2018-10-12T09:06:18.127Z,52.40
2018-10-12T09:08:45.698Z,52.60
2018-10-12T09:11:13.220Z,51.80
2018-10-12T09:13:40.784Z,51.70
2018-10-12T09:16:08.504Z,51.60
2018-10-12T09:18:36.065Z,51.60
2018-10-12T09:21:03.656Z,51.80
2018-10-12T09:23:31.257Z,51.50
2018-10-12T09:25:58.847Z,50.20
2018-10-12T09:28:26.390Z,49.50
2018-10-12T09:30:53.993Z,49.80
2018-10-12T09:33:21.837Z,50.10
2018-10-12T09:35:49.421Z,50.40
2018-10-12T09:38:17.105Z,50.80
2018-10-12T09:40:44.646Z,51.60
2018-10-12T09:43:12.304Z,52.30
2018-10-12T09:45:39.902Z,52.80
2018-10-12T09:48:07.839Z,53.40
2018-10-12T09:50:35.387Z,53.80
2018-10-12T09:53:03.015Z,53.80
2018-10-12T09:55:30.592Z,54.10
2018-10-12T09:57:58.132Z,54.70
2018-10-12T10:01:33.156Z,55.30
2018-10-12T10:04:06.372Z,55.60
2018-10-12T10:06:33.932Z,55.90
2018-10-12T10:09:01.553Z,55.90
2018-10-12T10:11:29.092Z,56.00
2018-10-12T10:13:56.787Z,56.20
2018-10-12T10:16:24.321Z,56.10
2018-10-12T10:18:51.931Z,56.10
2018-10-12T10:21:19.996Z,56.20
2018-10-12T10:23:47.550Z,56.50
2018-10-12T10:26:15.124Z,56.40
2018-10-12T10:28:42.743Z,56.00
2018-10-12T10:31:10.377Z,55.30
2018-10-12T10:33:39.042Z,55.20
2018-10-12T10:36:06.670Z,55.30
2018-10-12T10:38:34.256Z,54.70
2018-10-12T10:41:01.852Z,54.90
2018-10-12T10:43:29.468Z,54.80
2018-10-12T10:45:57.686Z,54.60
2018-10-12T10:48:25.270Z,54.80
2018-10-12T10:50:52.862Z,54.90
2018-10-12T10:53:20.440Z,55.30
2018-10-12T10:55:47.974Z,55.70
2018-10-12T10:58:15.506Z,56.00
2018-10-12T11:00:43.118Z,56.10
2018-10-12T11:03:10.666Z,56.00
2018-10-12T11:05:38.223Z,55.90
2018-10-12T11:08:05.880Z,55.60
2018-10-12T11:10:33.468Z,55.10
2018-10-12T11:13:01.746Z,54.90
2018-10-12T11:15:29.271Z,54.50
2018-10-12T11:17:56.844Z,54.10
2018-10-12T11:20:24.447Z,53.40
2018-10-12T11:22:52.024Z,53.20
2018-10-12T11:25:19.582Z,53.40
2018-10-12T11:27:47.188Z,53.40
2018-10-12T11:30:15.346Z,53.50
2018-10-12T11:32:43.070Z,53.70
2018-10-12T11:35:10.653Z,53.60
2018-10-12T11:37:38.235Z,53.70
2018-10-12T11:40:06.033Z,54.00
2018-10-12T11:42:44.844Z,54.10
2018-10-12T11:45:12.438Z,54.30
2018-10-12T11:47:39.967Z,54.50
2018-10-12T11:50:07.600Z,54.60
2018-10-12T11:52:35.137Z,54.80
2018-10-12T11:55:02.734Z,55.10
2018-10-12T11:57:30.278Z,55.10
2018-10-12T11:59:57.838Z,55.00
2018-10-12T12:02:25.410Z,54.90
2018-10-12T12:04:52.978Z,54.10
2018-10-12T12:07:20.597Z,52.90
2018-10-12T12:09:48.158Z,52.40
2018-10-12T12:12:15.765Z,52.10
2018-10-12T12:14:43.310Z,52.30
2018-10-12T12:17:10.921Z,52.60
2018-10-12T12:19:38.510Z,52.80
2018-10-12T12:22:06.356Z,52.70
2018-10-12T12:24:33.921Z,52.40
2018-10-12T12:27:01.489Z,52.40
2018-10-12T12:29:29.096Z,52.50
2018-10-12T12:31:56.673Z,52.40
2018-10-12T12:34:24.299Z,52.30
2018-10-12T12:36:52.126Z,52.20
2018-10-12T12:39:19.752Z,52.10
2018-10-12T12:41:47.611Z,52.00
2018-10-12T12:44:15.088Z,51.80
2018-10-12T12:46:42.673Z,51.60
2018-10-12T12:49:10.563Z,51.50
2018-10-12T12:51:37.862Z,51.30
2018-10-12T12:54:05.472Z,51.20
2018-10-12T12:56:33.022Z,51.10
2018-10-12T12:59:00.600Z,50.70
2018-10-12T13:01:28.142Z,50.40
2018-10-12T13:03:55.718Z,50.20
2018-10-12T13:06:23.346Z,49.80
2018-10-12T13:08:50.905Z,49.60
2018-10-12T13:11:18.470Z,49.20
2018-10-12T13:13:46.176Z,48.70
2018-10-12T13:16:13.731Z,48.20
2018-10-12T13:18:41.333Z,47.60
2018-10-12T13:21:08.944Z,47.30
2018-10-12T13:23:36.534Z,46.70
2018-10-12T13:26:04.295Z,46.30
2018-10-12T13:28:31.718Z,45.40
2018-10-12T13:30:59.308Z,45.30
2018-10-12T13:33:26.887Z,45.20
2018-10-12T13:35:54.567Z,45.20
2018-10-12T13:38:22.144Z,45.10
2018-10-12T13:40:49.687Z,45.00
2018-10-12T13:43:17.258Z,45.00
2018-10-12T13:45:44.843Z,44.90
2018-10-12T13:48:12.405Z,44.70
2018-10-12T13:50:40.142Z,44.60
2018-10-12T13:53:07.746Z,44.40
2018-10-12T13:55:35.318Z,44.10
2018-10-12T13:58:02.937Z,43.80
2018-10-12T14:00:30.689Z,43.30
2018-10-12T14:02:58.133Z,42.90
2018-10-12T14:05:25.700Z,41.90
2018-10-12T14:07:53.445Z,41.60
2018-10-12T14:10:21.249Z,41.20
2018-10-12T14:12:49.559Z,41.00
2018-10-12T14:15:17.356Z,40.20
2018-10-12T14:17:45.544Z,39.50
2018-10-12T14:20:13.171Z,39.20
2018-10-12T14:22:40.717Z,38.80
2018-10-12T14:25:08.290Z,38.70
2018-10-12T14:27:36.052Z,38.60
2018-10-12T14:30:03.997Z,38.20
2018-10-12T14:32:31.909Z,38.20
2018-10-12T14:34:59.490Z,38.30
2018-10-12T14:37:27.099Z,38.20
2018-10-12T14:39:54.678Z,38.20
2018-10-12T14:42:22.373Z,38.10
2018-10-12T14:44:50.088Z,37.60
2018-10-12T14:47:17.656Z,37.00
2018-10-12T14:49:45.201Z,36.50
2018-10-12T14:52:13.164Z,36.00
2018-10-12T14:54:40.765Z,35.30
2018-10-12T14:57:14.002Z,35.00
2018-10-12T14:59:41.551Z,34.90
2018-10-12T15:02:10.277Z,34.10
2018-10-12T15:04:37.887Z,34.10
2018-10-12T15:07:05.799Z,33.90
2018-10-12T15:09:33.517Z,33.60
2018-10-12T15:12:01.132Z,33.20
2018-10-12T15:14:40.872Z,33.00
2018-10-12T15:17:08.500Z,32.60
2018-10-12T15:19:36.781Z,32.30
2018-10-12T15:22:04.405Z,32.20
2018-10-12T15:24:32.455Z,31.80
2018-10-12T15:27:00.956Z,31.70
2018-10-12T15:29:28.753Z,31.30
2018-10-12T15:31:56.331Z,30.90
2018-10-12T15:34:23.939Z,30.60
2018-10-12T15:36:51.519Z,30.50
2018-10-12T15:39:19.056Z,30.40
2018-10-12T15:41:46.759Z,30.20
2018-10-12T15:44:14.339Z,30.00
2018-10-12T15:46:42.024Z,29.80
2018-10-12T15:49:09.708Z,29.40
2018-10-12T15:51:37.511Z,29.00
2018-10-12T15:54:05.091Z,28.70
2018-10-12T15:56:32.784Z,28.50
2018-10-12T15:59:00.356Z,28.30
2018-10-12T16:01:27.904Z,28.00
2018-10-12T16:03:55.514Z,27.80
2018-10-12T16:06:23.270Z,27.50
2018-10-12T16:08:50.834Z,27.20
2018-10-12T16:11:18.405Z,27.00
2018-10-12T16:13:46.088Z,26.80
2018-10-12T16:16:13.767Z,26.60
2018-10-12T16:18:41.305Z,26.40
2018-10-12T16:21:08.935Z,26.20
2018-10-12T16:23:36.629Z,25.90
2018-10-12T16:26:23.884Z,25.60
2018-10-12T16:28:51.463Z,25.40
2018-10-12T16:31:19.126Z,25.20
2018-10-12T16:33:46.730Z,25.00
2018-10-12T16:36:14.377Z,24.80
2018-10-12T16:38:41.968Z,24.60
2018-10-12T16:41:09.598Z,24.40
2018-10-12T16:43:37.178Z,24.30
2018-10-12T16:46:04.788Z,24.10
2018-10-12T16:48:32.453Z,23.80
2018-10-12T16:51:00.067Z,23.60
2018-10-12T16:53:27.769Z,23.40
2018-10-12T16:55:55.378Z,23.20
2018-10-12T16:58:23.102Z,23.00
2018-10-12T17:00:51.128Z,22.80
2018-10-12T17:03:18.676Z,22.70
2018-10-12T17:05:47.668Z,22.50
2018-10-12T17:08:16.417Z,22.30
2018-10-12T17:10:44.055Z,22.10
2018-10-12T17:13:13.590Z,22.00
2018-10-12T17:15:41.229Z,21.80
2018-10-12T17:18:09.321Z,21.70
2018-10-12T17:20:37.648Z,21.60
2018-10-12T17:23:05.664Z,21.50
2018-10-12T17:25:33.245Z,21.30
2018-10-12T17:28:01.498Z,21.20
2018-10-12T17:30:29.194Z,21.10
2018-10-12T17:32:56.736Z,20.90
2018-10-12T17:35:24.365Z,20.80
2018-10-12T17:37:51.941Z,20.70
2018-10-12T17:40:19.564Z,20.60
2018-10-12T17:42:47.264Z,20.50
2018-10-12T17:45:14.903Z,20.40
2018-10-12T17:47:42.551Z,20.30
2018-10-12T17:50:10.136Z,20.20
2018-10-12T17:52:38.684Z,20.10
2018-10-12T17:55:06.709Z,20.00
2018-10-12T17:57:34.316Z,19.90
2018-10-12T18:00:02.049Z,19.80
2018-10-12T18:02:29.702Z,19.70
2018-10-12T18:04:57.412Z,19.70
2018-10-12T18:07:24.997Z,19.60
2018-10-12T18:09:52.603Z,19.50
2018-10-12T18:12:20.346Z,19.40
2018-10-12T18:14:48.016Z,19.30
2018-10-12T18:17:15.609Z,19.20
2018-10-12T18:19:43.228Z,19.10
2018-10-12T18:22:10.890Z,19.00
2018-10-12T18:24:38.513Z,18.90
2018-10-12T18:27:07.225Z,18.90
2018-10-12T18:29:34.865Z,18.80
2018-10-12T18:32:03.521Z,18.70
2018-10-12T18:34:33.704Z,18.60
2018-10-12T18:37:01.476Z,18.50
2018-10-12T18:39:29.042Z,18.40
2018-10-12T18:41:56.701Z,18.30
2018-10-12T18:44:24.657Z,18.20
2018-10-12T18:46:53.301Z,18.10
2018-10-12T18:49:21.022Z,18.00
2018-10-12T18:51:49.012Z,18.00
2018-10-12T18:54:16.766Z,17.90
2018-10-12T18:56:44.411Z,17.80
2018-10-12T18:59:12.013Z,17.70
2018-10-12T19:01:39.659Z,17.60
2018-10-12T19:04:07.455Z,17.50
2018-10-12T19:06:35.279Z,17.50
2018-10-12T19:09:03.819Z,17.40
2018-10-12T19:11:31.431Z,17.30
2018-10-12T19:13:59.128Z,17.20
2018-10-12T19:16:26.733Z,17.10
2018-10-12T19:18:54.367Z,17.00
2018-10-12T19:21:22.095Z,16.90
2018-10-12T19:23:49.795Z,16.90
2018-10-12T19:26:17.382Z,16.80
2018-10-12T19:28:45.361Z,16.80
2018-10-12T19:31:13.092Z,16.70
2018-10-12T19:33:40.704Z,16.60
2018-10-12T19:36:08.306Z,16.60
2018-10-12T19:38:36.025Z,16.50
2018-10-12T19:41:04.292Z,16.50
2018-10-12T19:43:31.930Z,16.40
2018-10-12T19:45:59.566Z,16.40
2018-10-12T19:48:27.207Z,16.40
2018-10-12T19:50:55.050Z,16.30
2018-10-12T19:53:23.749Z,16.20
2018-10-12T19:55:51.444Z,16.20
2018-10-12T19:58:19.291Z,16.10
2018-10-12T20:00:46.964Z,16.10
2018-10-12T20:03:15.281Z,16.00
2018-10-12T20:05:42.897Z,16.00
2018-10-12T20:08:10.499Z,15.90
2018-10-12T20:10:38.229Z,15.80
2018-10-12T20:13:05.720Z,15.80
2018-10-12T20:15:33.340Z,15.70
2018-10-12T20:18:00.968Z,15.70
2018-10-12T20:20:28.584Z,15.60
2018-10-12T20:22:56.375Z,15.60
2018-10-12T20:25:23.969Z,15.50
2018-10-12T20:27:51.572Z,15.50
2018-10-12T20:30:19.132Z,15.50
2018-10-12T20:32:46.746Z,15.40
2018-10-12T20:35:14.312Z,15.40
2018-10-12T20:37:41.888Z,15.30
2018-10-12T20:40:09.538Z,15.30
2018-10-12T20:42:37.089Z,15.20
2018-10-12T20:45:04.748Z,15.20
2018-10-12T20:47:32.307Z,15.10
2018-10-12T20:49:59.840Z,15.10
2018-10-12T20:52:27.391Z,15.00
2018-10-12T20:54:54.991Z,15.00
2018-10-12T20:57:22.718Z,15.00
2018-10-12T20:59:50.286Z,14.90
2018-10-12T21:02:17.899Z,14.90
2018-10-12T21:04:45.564Z,14.80
2018-10-12T21:07:13.239Z,14.80
2018-10-12T21:09:40.864Z,14.70
2018-10-12T21:12:08.459Z,14.60
2018-10-12T21:14:36.044Z,14.60
2018-10-12T21:17:03.675Z,14.60
2018-10-12T21:19:31.238Z,14.50
2018-10-12T21:21:58.926Z,14.50
2018-10-12T21:24:26.524Z,14.50
2018-10-12T21:26:54.077Z,14.40
2018-10-12T21:29:21.746Z,14.40
2018-10-12T21:31:49.340Z,14.40
2018-10-12T21:34:17.018Z,14.30
2018-10-12T21:36:44.801Z,14.30
2018-10-12T21:39:12.366Z,14.30
2018-10-12T21:41:39.954Z,14.30
2018-10-12T21:44:07.529Z,14.20
2018-10-12T21:46:35.098Z,14.20
2018-10-12T21:49:02.669Z,14.10
2018-10-12T21:51:30.201Z,14.10
2018-10-12T21:53:57.783Z,14.10
2018-10-12T21:56:25.364Z,14.00
2018-10-12T21:58:52.963Z,14.00
2018-10-12T22:01:20.631Z,13.90
2018-10-12T22:03:48.262Z,13.90
2018-10-12T22:06:15.894Z,13.90
2018-10-12T22:08:49.251Z,13.80
2018-10-12T22:11:16.861Z,13.80
2018-10-12T22:13:44.709Z,13.80
2018-10-12T22:16:12.374Z,13.70
2018-10-12T22:18:40.003Z,13.70
2018-10-12T22:21:08.150Z,13.70
2018-10-12T22:23:35.736Z,13.60
2018-10-12T22:26:03.632Z,13.60
2018-10-12T22:28:31.466Z,13.60
2018-10-12T22:30:59.077Z,13.50
2018-10-12T22:33:26.628Z,13.50
2018-10-12T22:35:54.223Z,13.50
2018-10-12T22:38:21.896Z,13.50
2018-10-12T22:40:49.638Z,13.50
2018-10-12T22:43:17.191Z,13.40
2018-10-12T22:45:44.834Z,13.40
2018-10-12T22:48:12.799Z,13.30
2018-10-12T22:50:40.333Z,13.30
2018-10-12T22:53:07.979Z,13.30
2018-10-12T22:55:35.799Z,13.20
2018-10-12T22:58:04.023Z,13.20
2018-10-12T23:00:32.872Z,13.10
2018-10-12T23:03:00.834Z,13.10
2018-10-12T23:05:28.388Z,13.10
2018-10-12T23:07:55.993Z,13.00
2018-10-12T23:10:24.130Z,13.00
2018-10-12T23:12:52.092Z,13.00
2018-10-12T23:15:20.545Z,13.00
2018-10-12T23:17:48.346Z,12.90
2018-10-12T23:20:16.057Z,12.90
2018-10-12T23:22:43.617Z,12.80
2018-10-12T23:25:11.202Z,12.80
2018-10-12T23:27:38.786Z,12.80
2018-10-12T23:30:07.167Z,12.80
2018-10-12T23:32:34.728Z,12.80
2018-10-12T23:35:02.270Z,12.70
2018-10-12T23:37:29.852Z,12.70
2018-10-12T23:39:58.295Z,12.70
2018-10-12T23:42:25.876Z,12.70
2018-10-12T23:44:53.993Z,12.60
2018-10-12T23:47:22.343Z,12.60
2018-10-12T23:49:49.876Z,12.60
2018-10-12T23:52:17.455Z,12.60
2018-10-12T23:54:45.176Z,12.50
2018-10-12T23:57:12.835Z,12.50
2018-10-12T23:59:40.438Z,12.50
